createdAt,value
2023-04-18T00:00:28.881Z,6.93
2023-04-18T00:02:56.200Z,6.91
2023-04-18T00:05:23.398Z,6.88
2023-04-18T00:07:51.426Z,6.88
2023-04-18T00:10:18.419Z,6.91
2023-04-18T00:12:45.216Z,6.96
2023-04-18T00:15:12.899Z,6.92
2023-04-18T00:17:40.066Z,6.91
2023-04-18T00:20:10.684Z,6.99
2023-04-18T00:22:42.668Z,6.94
2023-04-18T00:25:10.664Z,6.96
2023-04-18T00:27:39.192Z,6.95
2023-04-18T00:30:07.274Z,6.86
2023-04-18T00:32:37.900Z,6.87
2023-04-18T00:35:05.284Z,6.83
2023-04-18T00:37:32.148Z,6.79
2023-04-18T00:39:59.025Z,6.84
2023-04-18T00:42:27.888Z,6.85
2023-04-18T00:44:55.166Z,6.82
2023-04-18T00:47:21.995Z,6.80
2023-04-18T00:49:49.235Z,6.76
2023-04-18T00:52:17.163Z,6.73
2023-04-18T00:54:44.974Z,6.72
2023-04-18T00:57:13.648Z,6.72
2023-04-18T00:59:41.126Z,6.75
2023-04-18T01:02:07.992Z,6.74
2023-04-18T01:04:34.997Z,6.76
2023-04-18T01:07:02.307Z,6.78
2023-04-18T01:09:29.440Z,6.75
2023-04-18T01:11:56.262Z,6.75
2023-04-18T01:14:23.396Z,6.72
2023-04-18T01:16:50.050Z,6.68
2023-04-18T01:19:18.921Z,6.70
2023-04-18T01:21:45.750Z,6.71
2023-04-18T01:24:17.038Z,6.70
2023-04-18T01:26:45.434Z,6.72
2023-04-18T01:29:12.366Z,6.80
2023-04-18T01:31:40.374Z,6.80
2023-04-18T01:34:08.014Z,6.78
2023-04-18T01:36:37.719Z,6.67
2023-04-18T01:39:04.692Z,6.78
2023-04-18T01:41:33.183Z,6.80
2023-04-18T01:44:00.357Z,6.83
2023-04-18T01:46:27.886Z,6.73
2023-04-18T01:48:55.346Z,6.72
2023-04-18T01:51:22.383Z,6.72
2023-04-18T01:53:49.640Z,6.70
2023-04-18T01:56:16.532Z,6.68
2023-04-18T01:58:43.794Z,6.69
2023-04-18T02:01:12.553Z,6.68
2023-04-18T02:03:40.123Z,6.69
2023-04-18T02:06:07.334Z,6.76
2023-04-18T02:08:36.142Z,6.71
2023-04-18T02:11:05.203Z,6.71
2023-04-18T02:13:32.120Z,6.75
2023-04-18T02:15:58.838Z,6.75
2023-04-18T02:18:26.601Z,6.72
2023-04-18T02:20:53.340Z,6.73
2023-04-18T02:23:21.793Z,6.69
2023-04-18T02:25:48.522Z,6.72
2023-04-18T02:28:17.331Z,6.68
2023-04-18T02:30:44.043Z,6.67
2023-04-18T02:33:10.993Z,6.70
2023-04-18T02:35:38.683Z,6.72
2023-04-18T02:38:05.331Z,6.71
2023-04-18T02:40:32.008Z,6.70
2023-04-18T02:42:59.415Z,6.76
2023-04-18T02:45:26.186Z,6.72
2023-04-18T02:47:56.054Z,6.72
2023-04-18T02:50:24.834Z,6.69
2023-04-18T02:52:53.077Z,6.70
2023-04-18T02:55:22.777Z,6.65
2023-04-18T02:57:49.555Z,6.67
2023-04-18T03:00:38.952Z,6.70
2023-04-18T03:03:06.008Z,6.70
2023-04-18T03:05:40.455Z,6.71
2023-04-18T03:08:07.581Z,6.69
2023-04-18T03:10:36.880Z,6.81
2023-04-18T03:13:04.522Z,6.76
2023-04-18T03:15:31.405Z,6.72
2023-04-18T03:17:58.680Z,6.71
2023-04-18T03:20:28.908Z,6.69
2023-04-18T03:22:55.695Z,6.69
2023-04-18T03:25:25.254Z,6.67
2023-04-18T03:27:53.403Z,6.68
2023-04-18T03:30:22.266Z,6.67
2023-04-18T03:32:56.122Z,6.60
2023-04-18T03:35:23.109Z,6.61
2023-04-18T03:37:50.410Z,6.64
2023-04-18T03:40:24.224Z,6.64
2023-04-18T03:42:53.564Z,6.62
2023-04-18T03:45:20.618Z,6.59
2023-04-18T03:47:47.608Z,6.59
2023-04-18T03:50:15.326Z,6.52
2023-04-18T03:52:43.604Z,6.55
2023-04-18T03:55:11.478Z,6.54
2023-04-18T03:57:38.504Z,6.58
2023-04-18T04:00:10.659Z,6.59
2023-04-18T04:02:43.190Z,6.68
2023-04-18T04:05:16.472Z,6.61
2023-04-18T04:07:43.571Z,6.61
2023-04-18T04:10:11.448Z,6.57
2023-04-18T04:12:38.136Z,6.53
2023-04-18T04:15:06.602Z,6.50
2023-04-18T04:17:34.282Z,6.50
2023-04-18T04:20:01.801Z,6.54
2023-04-18T04:22:30.119Z,6.53
2023-04-18T04:24:57.848Z,6.53
2023-04-18T04:27:30.683Z,6.53
2023-04-18T04:29:57.586Z,6.57
2023-04-18T04:32:25.301Z,6.56
2023-04-18T04:34:53.694Z,6.56
2023-04-18T04:37:20.886Z,6.60
2023-04-18T04:40:15.698Z,6.61
2023-04-18T04:42:49.143Z,6.61
2023-04-18T04:45:23.269Z,6.61
2023-04-18T04:47:50.007Z,6.60
2023-04-18T04:50:18.353Z,6.59
2023-04-18T04:52:45.161Z,6.62
2023-04-18T04:55:11.835Z,6.64
2023-04-18T04:57:40.419Z,6.61
2023-04-18T05:00:24.037Z,6.64
2023-04-18T05:02:55.827Z,6.59
2023-04-18T05:05:23.840Z,6.62
2023-04-18T05:07:50.669Z,6.61
2023-04-18T05:10:17.629Z,6.60
2023-04-18T05:12:44.494Z,6.63
2023-04-18T05:15:11.375Z,6.62
2023-04-18T05:17:38.185Z,6.64
2023-04-18T05:20:05.998Z,6.69
2023-04-18T05:22:32.722Z,6.64
2023-04-18T05:24:59.408Z,6.67
2023-04-18T05:27:26.410Z,6.67
2023-04-18T05:29:53.241Z,6.71
2023-04-18T05:32:20.382Z,6.74
2023-04-18T05:34:47.898Z,6.75
2023-04-18T05:37:14.917Z,6.71
2023-04-18T05:39:41.877Z,6.67
2023-04-18T05:42:08.818Z,6.65
2023-04-18T05:44:35.779Z,6.71
2023-04-18T05:47:05.730Z,6.74
2023-04-18T05:49:32.872Z,6.69
2023-04-18T05:51:59.807Z,6.72
2023-04-18T05:54:26.574Z,6.72
2023-04-18T05:56:54.304Z,6.70
2023-04-18T05:59:21.311Z,6.74
2023-04-18T06:01:49.406Z,6.70
2023-04-18T06:04:16.686Z,6.69
2023-04-18T06:06:43.873Z,6.72
2023-04-18T06:09:10.644Z,6.74
2023-04-18T06:11:37.313Z,6.78
2023-04-18T06:14:03.946Z,6.79
2023-04-18T06:16:30.639Z,6.71
2023-04-18T06:19:00.897Z,6.71
2023-04-18T06:21:28.417Z,6.74
2023-04-18T06:23:55.103Z,6.69
2023-04-18T06:26:21.839Z,6.76
2023-04-18T06:28:48.503Z,6.81
2023-04-18T06:31:15.305Z,6.78
2023-04-18T06:33:42.097Z,6.71
2023-04-18T06:36:09.200Z,6.82
2023-04-18T06:38:35.951Z,6.84
2023-04-18T06:41:02.616Z,6.89
2023-04-18T06:43:29.290Z,6.94
2023-04-18T06:45:56.778Z,6.98
2023-04-18T06:48:23.815Z,6.98
2023-04-18T06:50:50.589Z,6.98
2023-04-18T06:53:17.383Z,6.96
2023-04-18T06:55:44.140Z,7.02
2023-04-18T06:58:13.662Z,7.11
2023-04-18T07:00:40.383Z,7.12
2023-04-18T07:03:11.450Z,7.10
2023-04-18T07:05:39.350Z,7.13
2023-04-18T07:08:06.290Z,7.14
2023-04-18T07:10:33.007Z,7.17
2023-04-18T07:12:59.827Z,7.18
2023-04-18T07:15:26.564Z,7.21
2023-04-18T07:17:53.231Z,7.21
2023-04-18T07:20:19.982Z,7.20
2023-04-18T07:22:48.063Z,7.28
2023-04-18T07:25:14.951Z,7.29
2023-04-18T07:27:41.743Z,7.31
2023-04-18T07:30:09.137Z,7.36
2023-04-18T07:32:35.849Z,7.39
2023-04-18T07:35:04.260Z,7.33
2023-04-18T07:37:31.418Z,7.42
2023-04-18T07:39:58.498Z,7.54
2023-04-18T07:42:25.282Z,7.57
2023-04-18T07:44:57.684Z,7.58
2023-04-18T07:47:26.902Z,7.56
2023-04-18T07:49:55.152Z,7.74
2023-04-18T07:52:21.786Z,7.80
2023-04-18T07:54:48.464Z,7.84
2023-04-18T07:57:15.346Z,7.80
2023-04-18T07:59:42.064Z,7.98
2023-04-18T08:02:08.900Z,7.98
2023-04-18T08:04:35.915Z,7.99
2023-04-18T08:07:02.659Z,8.06
2023-04-18T08:09:29.408Z,8.04
2023-04-18T08:11:57.907Z,8.05
2023-04-18T08:14:24.486Z,8.08
2023-04-18T08:16:51.197Z,8.06
2023-04-18T08:19:17.901Z,7.91
2023-04-18T08:21:44.687Z,8.08
2023-04-18T08:24:11.364Z,8.12
2023-04-18T08:26:38.020Z,8.09
2023-04-18T08:29:04.735Z,8.14
2023-04-18T08:31:31.834Z,7.88
2023-04-18T08:33:58.568Z,7.78
2023-04-18T08:36:25.994Z,7.95
2023-04-18T08:38:52.808Z,8.18
2023-04-18T08:41:22.732Z,8.11
2023-04-18T08:43:49.490Z,8.06
2023-04-18T08:46:17.134Z,7.85
2023-04-18T08:48:44.030Z,7.78
2023-04-18T08:51:11.387Z,7.98
2023-04-18T08:53:39.285Z,7.90
2023-04-18T08:56:10.568Z,7.81
2023-04-18T08:58:37.618Z,7.73
2023-04-18T09:01:04.462Z,7.71
2023-04-18T09:03:41.680Z,7.93
2023-04-18T09:06:14.368Z,7.96
2023-04-18T09:08:43.419Z,8.12
2023-04-18T09:11:22.218Z,8.22
2023-04-18T09:13:50.317Z,8.37
2023-04-18T09:16:20.848Z,8.38
2023-04-18T09:19:13.728Z,8.11
2023-04-18T09:21:42.807Z,8.04
2023-04-18T09:24:22.473Z,8.03
2023-04-18T09:26:50.147Z,8.02
2023-04-18T09:29:18.562Z,8.21
2023-04-18T09:31:57.407Z,8.01
2023-04-18T09:34:25.115Z,7.87
2023-04-18T09:37:17.933Z,8.06
2023-04-18T09:39:45.182Z,8.02
2023-04-18T09:42:12.596Z,7.89
2023-04-18T09:45:06.276Z,8.07
2023-04-18T09:47:37.638Z,8.08
2023-04-18T09:50:06.055Z,8.02
2023-04-18T09:52:35.964Z,8.02
2023-04-18T09:55:04.975Z,7.93
2023-04-18T09:57:33.072Z,7.93
2023-04-18T10:00:29.284Z,7.88
2023-04-18T10:03:01.205Z,7.78
2023-04-18T10:05:32.430Z,7.88
2023-04-18T10:07:59.499Z,8.09
2023-04-18T10:10:26.157Z,8.22
2023-04-18T10:12:55.144Z,8.30
2023-04-18T10:15:24.833Z,8.48
2023-04-18T10:18:04.179Z,8.19
2023-04-18T10:20:33.694Z,8.41
2023-04-18T10:23:00.846Z,8.47
2023-04-18T10:25:33.914Z,8.38
2023-04-18T10:28:08.987Z,8.09
2023-04-18T10:30:40.107Z,8.13
2023-04-18T10:33:30.935Z,8.01
2023-04-18T10:36:01.208Z,8.05
2023-04-18T10:38:28.638Z,8.10
2023-04-18T10:41:24.273Z,8.05
2023-04-18T10:44:08.050Z,8.10
2023-04-18T10:47:04.008Z,8.23
2023-04-18T10:49:33.916Z,8.42
2023-04-18T10:52:02.009Z,8.47
2023-04-18T10:54:51.300Z,8.44
2023-04-18T10:57:18.079Z,8.48
2023-04-18T10:59:49.397Z,8.46
2023-04-18T11:02:28.874Z,8.60
2023-04-18T11:04:57.664Z,8.57
2023-04-18T11:07:45.076Z,8.55
2023-04-18T11:10:12.665Z,8.58
2023-04-18T11:12:40.586Z,8.54
2023-04-18T11:15:20.124Z,8.61
2023-04-18T11:17:54.657Z,8.67
2023-04-18T11:20:21.335Z,8.76
2023-04-18T11:22:51.606Z,8.84
2023-04-18T11:25:19.811Z,8.91
2023-04-18T11:27:48.875Z,8.90
2023-04-18T11:30:16.184Z,9.00
2023-04-18T11:32:43.082Z,8.96
2023-04-18T11:35:11.709Z,8.94
2023-04-18T11:37:39.391Z,9.03
2023-04-18T11:40:08.761Z,8.98
2023-04-18T11:42:37.491Z,9.04
2023-04-18T11:45:08.752Z,9.01
2023-04-18T11:47:35.537Z,8.74
2023-04-18T11:50:07.230Z,8.78
2023-04-18T11:52:35.143Z,8.79
2023-04-18T11:55:13.107Z,8.91
2023-04-18T11:57:40.951Z,9.00
2023-04-18T12:00:09.361Z,9.07
2023-04-18T12:02:39.356Z,9.23
2023-04-18T12:05:06.983Z,9.30
2023-04-18T12:07:36.300Z,9.32
2023-04-18T12:10:06.144Z,9.31
2023-04-18T12:12:33.205Z,9.26
2023-04-18T12:15:08.852Z,9.10
2023-04-18T12:17:37.051Z,9.16
2023-04-18T12:20:05.993Z,9.15
2023-04-18T12:22:44.983Z,9.19
2023-04-18T12:25:27.063Z,9.29
2023-04-18T12:28:13.823Z,9.24
2023-04-18T12:30:40.761Z,9.06
2023-04-18T12:33:09.211Z,9.02
2023-04-18T12:35:36.138Z,9.12
2023-04-18T12:38:03.375Z,8.95
2023-04-18T12:40:30.306Z,9.02
2023-04-18T12:42:57.091Z,9.06
2023-04-18T12:45:24.103Z,8.98
2023-04-18T12:47:51.860Z,8.96
2023-04-18T12:50:21.350Z,9.08
2023-04-18T12:52:48.350Z,8.96
2023-04-18T12:55:15.804Z,8.84
2023-04-18T12:57:43.329Z,8.82
2023-04-18T13:00:12.244Z,8.80
2023-04-18T13:02:41.901Z,8.69
2023-04-18T13:05:10.243Z,8.66
2023-04-18T13:07:43.294Z,8.63
2023-04-18T13:10:11.892Z,8.69
2023-04-18T13:12:39.854Z,8.67
2023-04-18T13:15:07.722Z,8.74
2023-04-18T13:17:36.820Z,8.87
2023-04-18T13:20:06.426Z,8.96
2023-04-18T13:22:33.904Z,9.04
2023-04-18T13:25:00.586Z,9.08
2023-04-18T13:27:27.469Z,9.14
2023-04-18T13:29:55.241Z,9.14
2023-04-18T13:32:22.191Z,9.17
2023-04-18T13:34:49.272Z,9.22
2023-04-18T13:37:16.329Z,9.21
2023-04-18T13:39:44.294Z,9.14
2023-04-18T13:42:11.031Z,9.19
2023-04-18T13:44:37.988Z,9.25
2023-04-18T13:47:06.031Z,9.25
2023-04-18T13:49:34.299Z,9.25
2023-04-18T13:52:01.163Z,9.19
2023-04-18T13:54:29.603Z,9.28
2023-04-18T13:56:58.410Z,9.24
2023-04-18T13:59:25.878Z,9.20
2023-04-18T14:01:54.473Z,9.20
2023-04-18T14:04:22.709Z,9.18
2023-04-18T14:06:50.510Z,9.17
2023-04-18T14:09:17.992Z,9.23
2023-04-18T14:11:45.276Z,9.24
2023-04-18T14:14:12.006Z,9.26
2023-04-18T14:16:38.728Z,9.24
2023-04-18T14:19:05.562Z,9.30
2023-04-18T14:21:32.197Z,9.33
2023-04-18T14:23:58.979Z,9.23
2023-04-18T14:26:25.917Z,9.35
2023-04-18T14:28:52.623Z,9.44
2023-04-18T14:31:19.433Z,9.54
2023-04-18T14:33:46.520Z,9.58
2023-04-18T14:36:15.338Z,9.41
2023-04-18T14:38:42.335Z,9.50
2023-04-18T14:41:09.142Z,9.59
2023-04-18T14:43:35.899Z,9.70
2023-04-18T14:46:02.584Z,9.69
2023-04-18T14:48:30.226Z,9.74
2023-04-18T14:51:00.453Z,9.67
2023-04-18T14:53:27.167Z,9.61
2023-04-18T14:55:54.650Z,9.58
2023-04-18T14:58:21.827Z,9.59
2023-04-18T15:00:49.384Z,9.55
2023-04-18T15:03:19.362Z,9.45
2023-04-18T15:05:49.181Z,9.50
2023-04-18T15:08:16.288Z,9.50
2023-04-18T15:10:43.089Z,9.43
2023-04-18T15:13:11.051Z,9.44
2023-04-18T15:15:39.717Z,9.44
2023-04-18T15:18:08.045Z,9.43
2023-04-18T15:20:37.068Z,9.41
2023-04-18T15:23:04.299Z,9.22
2023-04-18T15:25:31.145Z,9.15
2023-04-18T15:27:58.560Z,9.16
2023-04-18T15:30:25.608Z,9.17
2023-04-18T15:32:53.958Z,9.17
2023-04-18T15:35:21.053Z,9.17
2023-04-18T15:37:49.332Z,9.15
2023-04-18T15:40:16.530Z,9.08
2023-04-18T15:42:43.832Z,8.91
2023-04-18T15:45:11.826Z,8.62
2023-04-18T15:47:39.378Z,8.33
2023-04-18T15:50:07.060Z,8.13
2023-04-18T15:52:33.930Z,8.10
2023-04-18T15:55:00.820Z,8.02
2023-04-18T15:57:29.728Z,8.02
2023-04-18T15:59:57.009Z,8.03
2023-04-18T16:02:23.754Z,7.94
2023-04-18T16:04:50.584Z,8.02
2023-04-18T16:07:17.319Z,7.93
2023-04-18T16:09:44.262Z,7.90
2023-04-18T16:12:11.253Z,7.91
2023-04-18T16:14:38.131Z,7.90
2023-04-18T16:17:04.804Z,7.89
2023-04-18T16:19:33.328Z,7.89
2023-04-18T16:22:01.140Z,7.85
2023-04-18T16:24:30.270Z,7.89
2023-04-18T16:26:57.405Z,7.90
2023-04-18T16:29:24.240Z,7.90
2023-04-18T16:31:51.863Z,8.03
2023-04-18T16:34:18.730Z,8.03
2023-04-18T16:36:45.653Z,8.04
2023-04-18T16:39:12.867Z,8.17
2023-04-18T16:41:39.684Z,8.25
2023-04-18T16:44:06.844Z,8.27
2023-04-18T16:46:33.699Z,8.33
2023-04-18T16:49:02.047Z,8.36
2023-04-18T16:51:29.524Z,8.44
2023-04-18T16:53:56.455Z,8.45
2023-04-18T16:56:23.342Z,8.48
2023-04-18T16:58:49.990Z,8.53
2023-04-18T17:01:16.909Z,8.52
2023-04-18T17:03:44.174Z,8.52
2023-04-18T17:06:10.990Z,8.53
2023-04-18T17:08:37.880Z,8.54
2023-04-18T17:11:04.836Z,8.53
2023-04-18T17:13:31.721Z,8.48
2023-04-18T17:15:58.552Z,8.50
2023-04-18T17:18:25.394Z,8.51
2023-04-18T17:20:52.390Z,8.49
2023-04-18T17:23:19.208Z,8.55
2023-04-18T17:25:46.293Z,8.50
2023-04-18T17:28:14.052Z,8.47
2023-04-18T17:30:44.117Z,8.46
2023-04-18T17:33:11.056Z,8.43
2023-04-18T17:35:41.337Z,8.45
2023-04-18T17:38:10.564Z,8.42
2023-04-18T17:40:37.456Z,8.45
2023-04-18T17:43:04.227Z,8.51
2023-04-18T17:45:31.033Z,8.21
2023-04-18T17:47:59.431Z,8.38
2023-04-18T17:50:26.112Z,8.27
2023-04-18T17:52:53.317Z,8.23
2023-04-18T17:55:20.200Z,8.22
2023-04-18T17:57:47.028Z,8.07
2023-04-18T18:00:15.670Z,8.09
2023-04-18T18:02:43.096Z,8.09
2023-04-18T18:05:13.691Z,8.12
2023-04-18T18:07:43.338Z,8.13
2023-04-18T18:10:11.390Z,8.12
2023-04-18T18:12:38.243Z,8.10
2023-04-18T18:15:05.609Z,8.12
2023-04-18T18:17:32.513Z,8.14
2023-04-18T18:19:59.455Z,8.14
2023-04-18T18:22:26.344Z,8.14
2023-04-18T18:24:53.183Z,8.13
2023-04-18T18:27:22.998Z,8.18
2023-04-18T18:29:50.414Z,8.16
2023-04-18T18:32:17.217Z,8.11
2023-04-18T18:34:44.127Z,8.10
2023-04-18T18:37:10.860Z,8.13
2023-04-18T18:39:37.771Z,8.14
2023-04-18T18:42:04.599Z,8.12
2023-04-18T18:44:31.633Z,8.12
2023-04-18T18:46:59.673Z,8.12
2023-04-18T18:49:26.697Z,8.10
2023-04-18T18:51:53.633Z,8.06
2023-04-18T18:54:20.360Z,8.08
2023-04-18T18:56:47.094Z,8.05
2023-04-18T18:59:14.186Z,8.02
2023-04-18T19:01:41.222Z,8.08
2023-04-18T19:04:08.102Z,8.03
2023-04-18T19:06:35.329Z,8.05
2023-04-18T19:09:02.096Z,8.00
2023-04-18T19:11:29.427Z,7.99
2023-04-18T19:13:56.220Z,8.02
2023-04-18T19:16:23.143Z,7.94
2023-04-18T19:18:50.663Z,7.96
2023-04-18T19:21:17.591Z,7.91
2023-04-18T19:23:44.274Z,7.86
2023-04-18T19:26:10.903Z,7.84
2023-04-18T19:28:37.601Z,7.90
2023-04-18T19:31:04.484Z,7.90
2023-04-18T19:33:31.208Z,7.92
2023-04-18T19:35:58.381Z,7.94
2023-04-18T19:38:25.131Z,7.94
2023-04-18T19:40:51.841Z,7.93
2023-04-18T19:43:18.530Z,7.94
2023-04-18T19:45:45.302Z,7.93
2023-04-18T19:48:12.107Z,7.91
2023-04-18T19:50:41.033Z,7.88
2023-04-18T19:53:08.260Z,7.87
2023-04-18T19:55:35.041Z,7.89
2023-04-18T19:58:01.898Z,7.91
2023-04-18T20:00:29.509Z,7.91
2023-04-18T20:02:58.517Z,7.88
2023-04-18T20:05:25.481Z,7.87
2023-04-18T20:07:52.352Z,7.86
2023-04-18T20:10:21.953Z,7.91
2023-04-18T20:13:00.755Z,7.88
2023-04-18T20:15:30.557Z,7.91
2023-04-18T20:17:57.558Z,7.87
2023-04-18T20:20:24.289Z,7.87
2023-04-18T20:22:51.039Z,7.87
2023-04-18T20:25:17.926Z,7.86
2023-04-18T20:27:44.853Z,7.85
2023-04-18T20:30:11.865Z,7.84
2023-04-18T20:32:38.624Z,7.84
2023-04-18T20:35:06.017Z,7.85
2023-04-18T20:37:36.810Z,7.87
2023-04-18T20:40:08.024Z,7.91
2023-04-18T20:42:34.708Z,7.87
2023-04-18T20:45:03.274Z,7.85
2023-04-18T20:47:29.940Z,7.82
2023-04-18T20:49:57.240Z,7.81
2023-04-18T20:52:24.154Z,7.81
2023-04-18T20:54:50.959Z,7.81
2023-04-18T20:57:19.302Z,7.84
2023-04-18T20:59:45.994Z,7.83
2023-04-18T21:02:12.765Z,7.82
2023-04-18T21:04:39.624Z,7.80
2023-04-18T21:07:06.306Z,7.79
2023-04-18T21:09:36.480Z,7.81
2023-04-18T21:12:04.069Z,7.82
2023-04-18T21:14:30.921Z,7.79
2023-04-18T21:16:58.162Z,7.76
2023-04-18T21:19:25.002Z,7.75
2023-04-18T21:21:51.787Z,7.74
2023-04-18T21:24:18.515Z,7.66
2023-04-18T21:26:45.428Z,7.69
2023-04-18T21:29:12.086Z,7.76
2023-04-18T21:31:38.872Z,7.75
2023-04-18T21:34:05.617Z,7.71
2023-04-18T21:36:32.729Z,7.74
2023-04-18T21:39:01.155Z,7.73
2023-04-18T21:41:28.040Z,7.76
2023-04-18T21:43:54.748Z,7.70
2023-04-18T21:46:21.625Z,7.70
2023-04-18T21:48:48.633Z,7.70
2023-04-18T21:51:16.325Z,7.70
2023-04-18T21:53:43.314Z,7.71
2023-04-18T21:56:10.879Z,7.71
2023-04-18T21:58:38.021Z,7.69
2023-04-18T22:01:04.924Z,7.70
2023-04-18T22:03:34.117Z,7.72
2023-04-18T22:06:02.119Z,7.73
2023-04-18T22:08:29.763Z,7.78
2023-04-18T22:10:59.000Z,7.73
2023-04-18T22:13:32.972Z,7.79
2023-04-18T22:16:03.636Z,7.73
2023-04-18T22:18:33.808Z,7.77
2023-04-18T22:21:03.891Z,7.65
2023-04-18T22:23:31.197Z,7.65
2023-04-18T22:25:57.872Z,7.69
2023-04-18T22:28:24.647Z,7.69
2023-04-18T22:30:51.334Z,7.70
2023-04-18T22:33:18.295Z,7.69
2023-04-18T22:35:47.116Z,7.72
2023-04-18T22:38:13.922Z,7.70
2023-04-18T22:40:40.632Z,7.79
2023-04-18T22:43:07.612Z,7.72
2023-04-18T22:45:34.697Z,7.71
2023-04-18T22:48:01.437Z,7.70
2023-04-18T22:50:28.185Z,7.72
2023-04-18T22:52:54.825Z,7.71
2023-04-18T22:55:21.748Z,7.69
2023-04-18T22:57:48.411Z,7.83
2023-04-18T23:00:16.018Z,7.69
2023-04-18T23:02:43.640Z,7.67
2023-04-18T23:05:11.662Z,7.69
2023-04-18T23:07:38.322Z,7.79
2023-04-18T23:10:08.753Z,7.62
2023-04-18T23:12:35.565Z,7.57
2023-04-18T23:15:02.307Z,7.53
2023-04-18T23:38:28.945Z,7.38
2023-04-18T23:40:55.697Z,7.37
2023-04-18T23:43:22.483Z,7.35
2023-04-18T23:45:49.167Z,7.32
2023-04-18T23:48:15.812Z,7.35
2023-04-18T23:50:50.136Z,7.35
2023-04-18T23:53:19.797Z,7.39
2023-04-18T23:55:48.350Z,7.35
2023-04-18T23:58:16.180Z,7.35
